Time;durP1;ratioP1;P1;durP2;ratioP2;P2;SDS_P1;SDS_P2;PMS_P1;PMS_P2;Temp;Humidity;BMP_temperature;BMP_pressure;BME280_temperature;BME280_humidity;BME280_pressure;Samples;Min_cycle;Max_cycle;Signal;HPM_P1;HPM_P2
2022/04/03 00:02:18;;;;;;;3.78;2.13;;;;;;;;;;5016150;28;20036;-69
2022/04/03 00:04:43;;;;;;;4.13;1.83;;;;;;;;;;4999671;28;20049;-70
2022/04/03 00:07:10;;;;;;;6.32;2.20;;;;;;;;;;5017822;28;20345;-69
2022/04/03 00:09:40;;;;;;;3.70;2.05;;;;;;;;;;5017586;28;20041;-69
2022/04/03 00:12:06;;;;;;;5.03;2.30;;;;;;;;;;5006189;28;20560;-69
2022/04/03 00:14:33;;;;;;;3.75;2.50;;;;;;;;;;5021238;28;20047;-70
2022/04/03 00:16:58;;;;;;;4.30;2.35;;;;;;;;;;4972881;28;20433;-69
2022/04/03 00:19:24;;;;;;;5.90;2.70;;;;;;;;;;5021467;28;20339;-70
2022/04/03 00:21:52;;;;;;;4.63;2.50;;;;;;;;;;5003409;28;20473;-69
2022/04/03 00:24:22;;;;;;;6.53;3.05;;;;;;;;;;5002255;28;20863;-70
2022/04/03 00:26:49;;;;;;;6.43;2.10;;;;;;;;;;5002039;28;20180;-69
2022/04/03 00:29:15;;;;;;;4.18;2.50;;;;;;;;;;5000896;28;20097;-70
2022/04/03 00:31:40;;;;;;;4.03;2.28;;;;;;;;;;4985445;28;20033;-69
2022/04/03 00:34:10;;;;;;;5.38;2.20;;;;;;;;;;5002827;28;20477;-70
2022/04/03 00:36:38;;;;;;;6.15;2.40;;;;;;;;;;5001107;28;20116;-69
2022/04/03 00:39:05;;;;;;;7.88;3.17;;;;;;;;;;5000248;28;20034;-69
2022/04/03 00:41:31;;;;;;;3.95;2.70;;;;;;;;;;5005573;28;20029;-69
2022/04/03 00:43:57;;;;;;;4.28;2.42;;;;;;;;;;5001088;28;20067;-69
2022/04/03 00:46:23;;;;;;;6.10;2.58;;;;;;;;;;4986297;28;20437;-69
2022/04/03 00:48:57;;;;;;;6.47;2.83;;;;;;;;;;5000261;28;20110;-69
2022/04/03 00:51:23;;;;;;;5.25;2.50;;;;;;;;;;4999780;28;20087;-68
2022/04/03 00:53:48;;;;;;;6.95;2.83;;;;;;;;;;5000973;28;20037;-69
2022/04/03 00:56:14;;;;;;;7.93;2.97;;;;;;;;;;5001780;28;20481;-69
2022/04/03 00:58:39;;;;;;;6.70;2.60;;;;;;;;;;5006450;28;20400;-69
2022/04/03 01:01:05;;;;;;;6.32;2.25;;;;;;;;;;5001216;28;20121;-68
2022/04/03 01:03:31;;;;;;;8.95;2.45;;;;;;;;;;4999509;28;20044;-70
2022/04/03 01:06:00;;;;;;;7.13;2.50;;;;;;;;;;5015775;28;20409;-69
2022/04/03 01:08:28;;;;;;;8.40;2.53;;;;;;;;;;5001398;28;20055;-70
2022/04/03 01:10:54;;;;;;;8.23;2.90;;;;;;;;;;5001475;28;20034;-70
2022/04/03 01:13:21;;;;;;;4.63;2.20;;;;;;;;;;5000912;28;20422;-70
2022/04/03 01:15:56;;;;;;;6.23;2.10;;;;;;;;;;5000951;28;20137;-69
2022/04/03 01:18:24;;;;;;;5.25;2.33;;;;;;;;;;5002392;28;20064;-69
2022/04/03 01:20:50;;;;;;;11.23;2.93;;;;;;;;;;5003676;28;20046;-70
2022/04/03 01:23:19;;;;;;;6.90;2.50;;;;;;;;;;5019359;28;20082;-70
2022/04/03 01:25:45;;;;;;;6.17;2.10;;;;;;;;;;5019209;28;20037;-71
2022/04/03 01:28:10;;;;;;;6.07;2.57;;;;;;;;;;5020810;28;20122;-70
2022/04/03 01:30:35;;;;;;;7.33;2.43;;;;;;;;;;5003138;28;20028;-69
2022/04/03 01:33:00;;;;;;;8.33;2.50;;;;;;;;;;5020095;28;20440;-70
2022/04/03 01:35:26;;;;;;;6.60;2.30;;;;;;;;;;5006810;28;20116;-69
2022/04/03 01:37:53;;;;;;;5.47;2.27;;;;;;;;;;4993630;28;20033;-70
2022/04/03 01:40:21;;;;;;;5.60;2.13;;;;;;;;;;5002460;28;20731;-70
2022/04/03 01:42:47;;;;;;;6.20;2.27;;;;;;;;;;5020714;28;20021;-70
2022/04/03 01:45:15;;;;;;;5.90;2.50;;;;;;;;;;5001458;28;20473;-71
2022/04/03 01:47:40;;;;;;;7.80;2.57;;;;;;;;;;5002606;28;20025;-70
2022/04/03 01:50:06;;;;;;;10.67;2.30;;;;;;;;;;5020005;28;20037;-70
2022/04/03 01:52:32;;;;;;;8.00;2.47;;;;;;;;;;5021462;28;20044;-69
2022/04/03 01:54:59;;;;;;;5.80;2.40;;;;;;;;;;5019698;28;20043;-70
2022/04/03 01:57:27;;;;;;;5.90;2.47;;;;;;;;;;5002510;28;20060;-70
2022/04/03 01:59:54;;;;;;;5.57;2.37;;;;;;;;;;5019842;28;20057;-70
2022/04/03 02:02:22;;;;;;;5.97;2.50;;;;;;;;;;5001793;28;20583;-70
2022/04/03 02:04:47;;;;;;;4.40;2.30;;;;;;;;;;5020468;28;20059;-69
2022/04/03 02:07:15;;;;;;;7.30;2.50;;;;;;;;;;5021157;28;20041;-70
2022/04/03 02:09:42;;;;;;;5.87;2.57;;;;;;;;;;5001618;28;20064;-70
2022/04/03 02:12:13;;;;;;;6.50;2.70;;;;;;;;;;4988364;28;20040;-71
2022/04/03 02:14:38;;;;;;;4.87;2.47;;;;;;;;;;5019157;28;20555;-70
2022/04/03 02:17:07;;;;;;;7.23;2.50;;;;;;;;;;5002200;28;20056;-71
2022/04/03 02:19:32;;;;;;;6.43;2.67;;;;;;;;;;5008066;28;20136;-70
2022/04/03 02:21:58;;;;;;;5.83;2.40;;;;;;;;;;5019101;28;20460;-70
2022/04/03 02:24:24;;;;;;;5.23;2.33;;;;;;;;;;5019971;28;20037;-70
2022/04/03 02:26:49;;;;;;;5.20;2.40;;;;;;;;;;5002289;28;20369;-70
2022/04/03 02:29:15;;;;;;;6.73;2.73;;;;;;;;;;5020242;28;20604;-70
2022/04/03 02:31:41;;;;;;;5.10;2.50;;;;;;;;;;5020112;28;20141;-70
2022/04/03 02:34:07;;;;;;;9.83;2.70;;;;;;;;;;5003963;28;20037;-70
2022/04/03 02:36:32;;;;;;;5.70;2.73;;;;;;;;;;4986944;28;20072;-70
2022/04/03 02:39:00;;;;;;;8.90;2.47;;;;;;;;;;5008358;28;20068;-70
2022/04/03 02:41:28;;;;;;;6.10;2.77;;;;;;;;;;5018933;28;20473;-70
2022/04/03 02:43:58;;;;;;;5.13;2.50;;;;;;;;;;5017907;28;20029;-70
2022/04/03 02:46:23;;;;;;;6.63;2.63;;;;;;;;;;5017714;28;20045;-70
2022/04/03 02:48:49;;;;;;;5.53;2.47;;;;;;;;;;5000136;28;20098;-70
2022/04/03 02:51:17;;;;;;;6.47;2.43;;;;;;;;;;5009550;28;20037;-70
2022/04/03 02:53:43;;;;;;;5.43;2.53;;;;;;;;;;5010177;28;20064;-70
2022/04/03 02:56:09;;;;;;;4.03;2.30;;;;;;;;;;5018929;28;20033;-69
2022/04/03 02:58:37;;;;;;;10.60;2.70;;;;;;;;;;5017196;28;20029;-69
2022/04/03 03:01:03;;;;;;;4.20;2.30;;;;;;;;;;5003123;28;20039;-70
2022/04/03 03:03:28;;;;;;;7.77;2.50;;;;;;;;;;5002485;28;20049;-70
2022/04/03 03:05:56;;;;;;;6.73;2.57;;;;;;;;;;5017851;28;20037;-70
2022/04/03 03:08:22;;;;;;;3.73;2.00;;;;;;;;;;5020194;28;20043;-70
2022/04/03 03:10:47;;;;;;;6.50;2.17;;;;;;;;;;5018173;28;21795;-71
2022/04/03 03:13:13;;;;;;;3.13;2.10;;;;;;;;;;5008490;28;20064;-69
2022/04/03 03:15:39;;;;;;;5.80;1.97;;;;;;;;;;5017819;28;20944;-70
2022/04/03 03:18:07;;;;;;;3.93;2.10;;;;;;;;;;5019506;28;20025;-70
2022/04/03 03:20:32;;;;;;;5.80;2.30;;;;;;;;;;5018488;28;20112;-70
2022/04/03 03:23:00;;;;;;;4.23;2.37;;;;;;;;;;5019496;28;20037;-70
2022/04/03 03:25:27;;;;;;;4.37;2.00;;;;;;;;;;5017540;28;20477;-71
2022/04/03 03:27:53;;;;;;;7.00;2.07;;;;;;;;;;5018643;28;21860;-71
2022/04/03 03:30:21;;;;;;;4.27;2.00;;;;;;;;;;5018497;28;20087;-70
2022/04/03 03:32:46;;;;;;;4.43;2.00;;;;;;;;;;4991080;28;20037;-70
2022/04/03 03:35:12;;;;;;;5.07;2.00;;;;;;;;;;5019619;28;20025;-70
2022/04/03 03:37:38;;;;;;;5.13;2.20;;;;;;;;;;5018460;28;20204;-70
2022/04/03 03:40:06;;;;;;;6.00;2.10;;;;;;;;;;5018676;28;20025;-71
2022/04/03 03:42:37;;;;;;;3.73;1.90;;;;;;;;;;5000202;28;20029;-70
2022/04/03 03:45:05;;;;;;;4.13;2.23;;;;;;;;;;5018005;28;20388;-70
2022/04/03 03:47:31;;;;;;;5.30;1.97;;;;;;;;;;5022803;28;20145;-70
2022/04/03 03:49:56;;;;;;;6.87;1.97;;;;;;;;;;5024247;28;21908;-70
2022/04/03 03:52:25;;;;;;;6.77;2.10;;;;;;;;;;5008728;28;20142;-70
2022/04/03 03:54:53;;;;;;;3.63;2.10;;;;;;;;;;5013048;28;20025;-70
2022/04/03 03:57:18;;;;;;;6.40;2.13;;;;;;;;;;5004931;28;20405;-71
2022/04/03 03:59:46;;;;;;;8.97;2.10;;;;;;;;;;5004809;28;20049;-71
2022/04/03 04:02:11;;;;;;;6.20;2.00;;;;;;;;;;5005210;28;20068;-71
2022/04/03 04:04:37;;;;;;;4.63;2.30;;;;;;;;;;5004993;28;20116;-71
2022/04/03 04:07:03;;;;;;;4.93;2.00;;;;;;;;;;5023029;28;20034;-71
2022/04/03 04:09:28;;;;;;;5.77;2.10;;;;;;;;;;5022732;28;20028;-70
2022/04/03 04:11:54;;;;;;;4.27;1.90;;;;;;;;;;5011890;28;20017;-70
2022/04/03 04:14:19;;;;;;;6.03;1.80;;;;;;;;;;5023572;28;20059;-70
2022/04/03 04:16:46;;;;;;;5.00;2.23;;;;;;;;;;5021080;28;20021;-70
2022/04/03 04:19:13;;;;;;;4.07;1.90;;;;;;;;;;4996843;28;20080;-71
2022/04/03 04:21:38;;;;;;;3.70;2.20;;;;;;;;;;5020961;28;20042;-71
2022/04/03 04:24:04;;;;;;;3.47;1.93;;;;;;;;;;5022059;28;20083;-71
2022/04/03 04:26:29;;;;;;;4.43;1.90;;;;;;;;;;5004921;28;20111;-70
2022/04/03 04:28:55;;;;;;;2.87;1.97;;;;;;;;;;5022064;28;20084;-79
2022/04/03 04:31:21;;;;;;;10.00;2.00;;;;;;;;;;5020210;28;20052;-78
2022/04/03 04:33:46;;;;;;;4.73;2.03;;;;;;;;;;5021214;28;20037;-78
2022/04/03 04:36:11;;;;;;;7.20;2.10;;;;;;;;;;5019872;28;20033;-78
2022/04/03 04:38:37;;;;;;;3.17;2.10;;;;;;;;;;5020290;28;20028;-79
2022/04/03 04:41:04;;;;;;;4.43;1.90;;;;;;;;;;5020311;28;20048;-79
2022/04/03 04:43:30;;;;;;;5.63;2.30;;;;;;;;;;5001948;28;20032;-78
2022/04/03 04:45:56;;;;;;;5.57;2.17;;;;;;;;;;5019733;28;20041;-78
2022/04/03 04:48:24;;;;;;;4.03;1.93;;;;;;;;;;5023123;28;20036;-71
2022/04/03 04:50:52;;;;;;;3.57;1.70;;;;;;;;;;5022830;28;20040;-70
2022/04/03 04:53:20;;;;;;;3.10;1.90;;;;;;;;;;5021114;28;20049;-71
2022/04/03 04:55:45;;;;;;;4.90;2.00;;;;;;;;;;5019077;28;20173;-70
2022/04/03 04:58:13;;;;;;;5.13;1.83;;;;;;;;;;5022423;28;20048;-71
2022/04/03 05:00:39;;;;;;;4.90;1.67;;;;;;;;;;5022560;28;20112;-70
2022/04/03 05:03:04;;;;;;;4.00;2.50;;;;;;;;;;5021635;28;20027;-71
2022/04/03 05:05:32;;;;;;;3.93;1.97;;;;;;;;;;5022370;28;20087;-71
2022/04/03 05:07:58;;;;;;;6.13;2.60;;;;;;;;;;5002948;28;20444;-71
2022/04/03 05:10:26;;;;;;;5.30;2.63;;;;;;;;;;5020849;28;20044;-71
2022/04/03 05:12:53;;;;;;;3.87;2.60;;;;;;;;;;5003607;28;20032;-69
2022/04/03 05:15:19;;;;;;;5.93;2.20;;;;;;;;;;5020848;28;20191;-69
2022/04/03 05:17:47;;;;;;;6.97;2.60;;;;;;;;;;5002794;28;20090;-69
2022/04/03 05:20:13;;;;;;;3.90;2.50;;;;;;;;;;5003853;28;20025;-69
2022/04/03 05:22:39;;;;;;;4.57;2.40;;;;;;;;;;5020760;28;20052;-70
2022/04/03 05:25:06;;;;;;;7.43;2.73;;;;;;;;;;5021842;28;20041;-70
2022/04/03 05:27:34;;;;;;;6.23;2.70;;;;;;;;;;5010807;28;20299;-69
2022/04/03 05:30:03;;;;;;;4.10;2.70;;;;;;;;;;5020854;28;20021;-70
2022/04/03 05:32:31;;;;;;;8.37;2.80;;;;;;;;;;5020358;28;20052;-69
2022/04/03 05:35:03;;;;;;;9.00;2.90;;;;;;;;;;5019848;28;20458;-70
2022/04/03 05:37:29;;;;;;;7.97;2.97;;;;;;;;;;5011148;28;20025;-70
2022/04/03 05:39:55;;;;;;;5.47;3.40;;;;;;;;;;5020308;28;20033;-70
2022/04/03 05:42:21;;;;;;;6.97;3.70;;;;;;;;;;5020908;28;20030;-70
2022/04/03 05:44:49;;;;;;;6.33;3.27;;;;;;;;;;5019767;28;20025;-69
2022/04/03 05:47:16;;;;;;;5.60;3.40;;;;;;;;;;5008669;28;20021;-69
2022/04/03 05:49:41;;;;;;;5.93;2.70;;;;;;;;;;5003215;28;20043;-70
2022/04/03 05:52:07;;;;;;;9.73;2.50;;;;;;;;;;5020252;28;20028;-71
2022/04/03 05:54:32;;;;;;;7.07;2.30;;;;;;;;;;5019152;28;20029;-70
2022/04/03 05:57:00;;;;;;;6.07;1.83;;;;;;;;;;5020900;28;20106;-72
2022/04/03 05:59:28;;;;;;;5.60;1.38;;;;;;;;;;5019146;28;20026;-70
2022/04/03 06:01:57;;;;;;;5.35;1.23;;;;;;;;;;5019997;28;20075;-70
2022/04/03 06:04:22;;;;;;;2.70;1.48;;;;;;;;;;5002384;28;20052;-70
2022/04/03 06:06:50;;;;;;;6.05;1.30;;;;;;;;;;5004207;28;20040;-70
2022/04/03 06:09:18;;;;;;;21.38;9.30;;;;;;;;;;5018792;28;20031;-70
2022/04/03 06:11:43;;;;;;;11.63;4.88;;;;;;;;;;5001967;28;20016;-70
2022/04/03 06:14:10;;;;;;;5.00;1.40;;;;;;;;;;5019949;28;20061;-70
2022/04/03 06:16:37;;;;;;;4.47;1.00;;;;;;;;;;4984977;28;20029;-70
2022/04/03 06:19:03;;;;;;;5.40;1.10;;;;;;;;;;5020374;28;20041;-69
2022/04/03 06:21:28;;;;;;;5.18;0.98;;;;;;;;;;5001470;28;20500;-69
2022/04/03 06:23:56;;;;;;;4.90;1.20;;;;;;;;;;4991681;28;20147;-70
2022/04/03 06:26:22;;;;;;;7.15;0.90;;;;;;;;;;5001391;28;20052;-70
2022/04/03 06:28:47;;;;;;;3.97;0.90;;;;;;;;;;5001693;28;20033;-70
2022/04/03 06:31:17;;;;;;;3.28;0.70;;;;;;;;;;5018818;28;20649;-70
2022/04/03 06:33:45;;;;;;;5.57;1.00;;;;;;;;;;5017644;28;20032;-70
2022/04/03 06:36:11;;;;;;;3.63;1.00;;;;;;;;;;5018265;28;20048;-70
2022/04/03 06:38:39;;;;;;;7.43;1.70;;;;;;;;;;4972819;28;20067;-70
2022/04/03 06:41:07;;;;;;;8.52;1.10;;;;;;;;;;5019747;28;20029;-70
2022/04/03 06:43:40;;;;;;;4.35;0.88;;;;;;;;;;5001938;28;20039;-69
2022/04/03 06:46:08;;;;;;;6.28;0.98;;;;;;;;;;5018938;28;20757;-70
2022/04/03 06:48:33;;;;;;;3.80;0.90;;;;;;;;;;5018230;28;20047;-69
2022/04/03 06:51:01;;;;;;;3.30;0.70;;;;;;;;;;5000921;28;20103;-68
2022/04/03 06:53:27;;;;;;;5.03;0.90;;;;;;;;;;5019010;28;20041;-69
2022/04/03 06:55:55;;;;;;;4.95;1.00;;;;;;;;;;5009236;28;20837;-68
2022/04/03 06:58:23;;;;;;;2.65;0.70;;;;;;;;;;5003278;28;20420;-69
2022/04/03 07:00:48;;;;;;;5.05;1.38;;;;;;;;;;5018416;28;20064;-69
2022/04/03 07:03:16;;;;;;;4.75;1.17;;;;;;;;;;5017972;28;20287;-69
2022/04/03 07:05:42;;;;;;;6.28;1.23;;;;;;;;;;5000907;28;20513;-68
2022/04/03 07:08:07;;;;;;;5.50;1.10;;;;;;;;;;5019301;28;20231;-68
2022/04/03 07:10:37;;;;;;;2.92;0.82;;;;;;;;;;5018586;28;20618;-68
2022/04/03 07:13:03;;;;;;;4.40;1.50;;;;;;;;;;5017532;28;20039;-69
2022/04/03 07:15:28;;;;;;;1.60;0.70;;;;;;;;;;4985468;28;20473;-68
2022/04/03 07:17:53;;;;;;;7.85;0.70;;;;;;;;;;4987460;28;20032;-69
2022/04/03 07:20:21;;;;;;;3.20;0.60;;;;;;;;;;5016967;28;20055;-69
2022/04/03 07:22:46;;;;;;;1.75;0.80;;;;;;;;;;5018141;28;20068;-69
2022/04/03 07:25:14;;;;;;;7.70;1.10;;;;;;;;;;4986167;28;20128;-69
2022/04/03 07:27:40;;;;;;;7.07;0.77;;;;;;;;;;5000845;28;20539;-68
2022/04/03 07:30:06;;;;;;;3.65;0.70;;;;;;;;;;5019265;28;20152;-69
2022/04/03 07:32:32;;;;;;;7.70;0.77;;;;;;;;;;5019576;28;20116;-69
2022/04/03 07:34:58;;;;;;;4.53;0.50;;;;;;;;;;5017951;28;20044;-68
2022/04/03 07:37:26;;;;;;;10.88;1.88;;;;;;;;;;5018065;28;20365;-68
2022/04/03 07:39:52;;;;;;;5.60;1.55;;;;;;;;;;5018224;28;20041;-69
2022/04/03 07:42:18;;;;;;;6.95;2.35;;;;;;;;;;5016847;28;20033;-69
2022/04/03 07:44:44;;;;;;;3.85;1.15;;;;;;;;;;5018214;28;20034;-68
2022/04/03 07:47:11;;;;;;;2.58;1.38;;;;;;;;;;5017952;28;20486;-68
2022/04/03 07:49:37;;;;;;;3.35;1.80;;;;;;;;;;4999768;28;20044;-68
2022/04/03 07:52:03;;;;;;;4.90;1.70;;;;;;;;;;5017449;28;20028;-69
2022/04/03 07:54:29;;;;;;;6.90;1.30;;;;;;;;;;5017951;28;20047;-70
2022/04/03 07:56:57;;;;;;;4.45;1.00;;;;;;;;;;5018642;28;20847;-69
2022/04/03 07:59:22;;;;;;;4.78;1.52;;;;;;;;;;4985202;28;20029;-69
2022/04/03 08:01:48;;;;;;;3.50;1.40;;;;;;;;;;5017716;28;20626;-69
2022/04/03 08:04:13;;;;;;;1.92;0.80;;;;;;;;;;4999347;28;20027;-68
2022/04/03 08:06:41;;;;;;;2.42;1.23;;;;;;;;;;5017373;28;20044;-69
2022/04/03 08:09:08;;;;;;;2.45;1.20;;;;;;;;;;5017931;28;20734;-67
2022/04/03 08:11:36;;;;;;;5.32;1.35;;;;;;;;;;5017119;28;20025;-69
2022/04/03 08:14:02;;;;;;;3.15;1.08;;;;;;;;;;5001303;28;20025;-70
2022/04/03 08:16:27;;;;;;;4.57;2.50;;;;;;;;;;5001976;28;20079;-69
2022/04/03 08:18:53;;;;;;;7.28;1.40;;;;;;;;;;5017466;28;20059;-70
2022/04/03 08:21:21;;;;;;;3.28;1.10;;;;;;;;;;5016186;28;20795;-70
2022/04/03 08:23:46;;;;;;;3.13;1.27;;;;;;;;;;5018074;28;20032;-70
2022/04/03 08:26:12;;;;;;;2.83;1.00;;;;;;;;;;5017068;28;20389;-71
2022/04/03 08:28:38;;;;;;;4.35;0.93;;;;;;;;;;5017297;28;20133;-70
2022/04/03 08:31:07;;;;;;;6.28;1.38;;;;;;;;;;4999311;28;20037;-70
2022/04/03 08:33:35;;;;;;;4.43;0.70;;;;;;;;;;5021624;28;20029;-70
2022/04/03 08:36:03;;;;;;;8.90;1.40;;;;;;;;;;5002450;28;20039;-70
2022/04/03 08:38:28;;;;;;;6.57;0.85;;;;;;;;;;5021810;28;20029;-69
2022/04/03 08:41:01;;;;;;;8.63;0.90;;;;;;;;;;5004550;28;21852;-68
2022/04/03 08:43:31;;;;;;;1.90;0.80;;;;;;;;;;5021373;28;20033;-68
2022/04/03 08:45:56;;;;;;;4.97;0.77;;;;;;;;;;5020862;28;20040;-68
2022/04/03 08:48:22;;;;;;;5.28;0.77;;;;;;;;;;4987537;28;20490;-69
2022/04/03 08:50:50;;;;;;;1.92;0.70;;;;;;;;;;5005536;28;20039;-69
2022/04/03 08:53:20;;;;;;;6.00;1.05;;;;;;;;;;5019571;28;20094;-70
2022/04/03 08:55:45;;;;;;;5.90;1.00;;;;;;;;;;5002860;28;20716;-69
2022/04/03 08:58:10;;;;;;;5.97;1.00;;;;;;;;;;5019870;28;20061;-69
2022/04/03 09:00:36;;;;;;;6.22;2.42;;;;;;;;;;5020729;28;20999;-69
2022/04/03 09:03:04;;;;;;;19.05;8.55;;;;;;;;;;5020386;28;20033;-69
2022/04/03 09:05:43;;;;;;;19.63;7.30;;;;;;;;;;5020552;28;20823;-69
2022/04/03 09:08:09;;;;;;;12.85;3.70;;;;;;;;;;5020325;28;20468;-69
2022/04/03 09:10:35;;;;;;;4.10;1.80;;;;;;;;;;5020383;28;20452;-70
2022/04/03 09:13:00;;;;;;;8.25;3.85;;;;;;;;;;5020475;28;20048;-70
2022/04/03 09:15:27;;;;;;;2.95;0.98;;;;;;;;;;5001314;28;20033;-69
2022/04/03 09:17:56;;;;;;;2.50;0.77;;;;;;;;;;5020930;28;20079;-69
2022/04/03 09:20:23;;;;;;;4.70;0.90;;;;;;;;;;5019518;28;20032;-69
2022/04/03 09:23:01;;;;;;;1.77;0.50;;;;;;;;;;5020949;28;20726;-70
2022/04/03 09:25:29;;;;;;;3.08;0.57;;;;;;;;;;5010056;28;20493;-69
2022/04/03 09:27:59;;;;;;;3.35;0.80;;;;;;;;;;5003582;28;20041;-69
2022/04/03 09:30:29;;;;;;;3.42;1.00;;;;;;;;;;5018976;28;20041;-69
2022/04/03 09:32:56;;;;;;;4.50;0.65;;;;;;;;;;5019726;28;20033;-69
2022/04/03 09:35:26;;;;;;;2.35;0.70;;;;;;;;;;5017734;28;20366;-69
2022/04/03 09:38:27;;;;;;;1.45;0.80;;;;;;;;;;5020168;28;20028;-69
2022/04/03 09:40:53;;;;;;;5.88;1.45;;;;;;;;;;4945748;28;20041;-69
2022/04/03 09:43:19;;;;;;;3.65;0.90;;;;;;;;;;5003960;28;20119;-69
2022/04/03 09:45:52;;;;;;;7.18;0.98;;;;;;;;;;5019562;28;20086;-68
2022/04/03 09:48:19;;;;;;;5.28;0.70;;;;;;;;;;5019456;28;20037;-70
2022/04/03 09:51:05;;;;;;;17.48;1.42;;;;;;;;;;5020439;28;20040;-69
2022/04/03 09:53:41;;;;;;;8.55;1.15;;;;;;;;;;5019311;28;20219;-69
2022/04/03 09:56:07;;;;;;;7.82;0.90;;;;;;;;;;5019679;28;20199;-69
2022/04/03 09:58:37;;;;;;;4.57;1.45;;;;;;;;;;5019296;28;20075;-70
2022/04/03 10:01:26;;;;;;;10.65;1.30;;;;;;;;;;5019517;28;20056;-70
2022/04/03 10:03:52;;;;;;;8.90;1.48;;;;;;;;;;5018787;28;20112;-69
2022/04/03 10:06:23;;;;;;;5.72;1.15;;;;;;;;;;5019891;28;20148;-70
2022/04/03 10:08:49;;;;;;;3.53;1.00;;;;;;;;;;5003356;28;20073;-70
2022/04/03 10:11:15;;;;;;;3.13;0.80;;;;;;;;;;5001234;28;20242;-70
2022/04/03 10:13:41;;;;;;;4.55;0.70;;;;;;;;;;5002862;28;20217;-69
2022/04/03 10:16:09;;;;;;;4.88;0.70;;;;;;;;;;5018508;28;20044;-69
2022/04/03 10:18:34;;;;;;;8.57;0.90;;;;;;;;;;5009223;28;20633;-69
2022/04/03 10:21:00;;;;;;;6.75;0.80;;;;;;;;;;5018914;28;20048;-69
2022/04/03 10:23:26;;;;;;;10.35;1.05;;;;;;;;;;5001715;28;20040;-69
2022/04/03 10:25:55;;;;;;;6.35;1.15;;;;;;;;;;5001046;28;20116;-70
2022/04/03 10:28:25;;;;;;;5.10;0.90;;;;;;;;;;5019808;28;20484;-69
2022/04/03 10:31:00;;;;;;;7.57;1.08;;;;;;;;;;4986633;28;20491;-69
2022/04/03 10:33:26;;;;;;;4.75;1.10;;;;;;;;;;5008604;28;20033;-69
2022/04/03 10:36:04;;;;;;;2.30;0.80;;;;;;;;;;5018558;28;20325;-69
2022/04/03 10:38:42;;;;;;;4.82;0.70;;;;;;;;;;5018912;28;20112;-69
2022/04/03 10:41:24;;;;;;;10.10;0.95;;;;;;;;;;5017610;28;20049;-69
2022/04/03 10:43:49;;;;;;;1.80;1.10;;;;;;;;;;4986315;28;20477;-69
2022/04/03 10:46:16;;;;;;;5.00;0.80;;;;;;;;;;5017401;28;20045;-68
2022/04/03 10:48:42;;;;;;;2.30;0.90;;;;;;;;;;5001763;28;20052;-69
2022/04/03 10:51:09;;;;;;;4.05;1.27;;;;;;;;;;5018407;28;20029;-68
2022/04/03 10:53:37;;;;;;;4.80;1.63;;;;;;;;;;5018176;28;20797;-70
2022/04/03 10:56:09;;;;;;;5.07;0.75;;;;;;;;;;5017965;28;20308;-68
2022/04/03 10:58:39;;;;;;;3.13;0.80;;;;;;;;;;5017568;28;20029;-69
2022/04/03 11:01:05;;;;;;;3.97;0.60;;;;;;;;;;4988269;28;20635;-68
2022/04/03 11:03:32;;;;;;;1.65;0.70;;;;;;;;;;4999818;28;20078;-69
2022/04/03 11:05:57;;;;;;;5.78;0.90;;;;;;;;;;5002725;28;20059;-69
2022/04/03 11:08:42;;;;;;;1.55;0.60;;;;;;;;;;5017858;28;20077;-69
2022/04/03 11:11:08;;;;;;;4.25;0.90;;;;;;;;;;4999711;28;20129;-70
2022/04/03 11:13:38;;;;;;;2.17;0.82;;;;;;;;;;5017689;28;20026;-70
2022/04/03 11:16:04;;;;;;;3.40;1.48;;;;;;;;;;5016520;28;20554;-69
2022/04/03 11:18:43;;;;;;;6.25;1.38;;;;;;;;;;5001714;28;20029;-70
2022/04/03 11:21:08;;;;;;;5.22;1.42;;;;;;;;;;4985424;28;20041;-69
2022/04/03 11:23:39;;;;;;;4.82;2.47;;;;;;;;;;5000101;28;20388;-70
2022/04/03 11:26:05;;;;;;;8.55;2.72;;;;;;;;;;5016883;28;20092;-69
2022/04/03 11:28:34;;;;;;;8.07;2.10;;;;;;;;;;5017015;28;20533;-76
2022/04/03 11:30:59;;;;;;;8.93;1.85;;;;;;;;;;5016196;28;20114;-76
2022/04/03 11:33:25;;;;;;;2.90;1.00;;;;;;;;;;5001078;28;20487;-76
2022/04/03 11:35:54;;;;;;;4.32;1.00;;;;;;;;;;5016944;28;20563;-76
2022/04/03 11:38:20;;;;;;;6.68;2.30;;;;;;;;;;5017414;28;20399;-75
2022/04/03 11:40:47;;;;;;;5.88;2.00;;;;;;;;;;5017560;28;20052;-76
2022/04/03 11:43:16;;;;;;;5.82;1.90;;;;;;;;;;4999952;28;20025;-75
2022/04/03 11:45:54;;;;;;;4.47;1.00;;;;;;;;;;5016772;28;20093;-75
2022/04/03 11:48:20;;;;;;;4.80;2.20;;;;;;;;;;5017876;28;20411;-76
2022/04/03 11:50:46;;;;;;;9.23;2.35;;;;;;;;;;5017297;28;20112;-75
2022/04/03 11:53:12;;;;;;;6.22;1.30;;;;;;;;;;5017069;28;20437;-75
2022/04/03 11:55:39;;;;;;;8.18;1.50;;;;;;;;;;5005088;28;20075;-76
2022/04/03 11:58:05;;;;;;;10.35;1.45;;;;;;;;;;5017265;28;20252;-74
2022/04/03 12:00:31;;;;;;;5.88;1.35;;;;;;;;;;5017111;28;20785;-75
2022/04/03 12:02:57;;;;;;;3.47;0.80;;;;;;;;;;4998545;28;20025;-75
2022/04/03 12:05:23;;;;;;;3.50;0.70;;;;;;;;;;5017398;28;20052;-75
2022/04/03 12:07:49;;;;;;;4.72;0.70;;;;;;;;;;5020128;28;20565;-74
2022/04/03 12:10:25;;;;;;;2.35;0.70;;;;;;;;;;5020030;28;20032;-75
2022/04/03 12:12:51;;;;;;;5.80;0.80;;;;;;;;;;5021405;28;20555;-75
2022/04/03 12:15:20;;;;;;;2.30;0.75;;;;;;;;;;5020211;28;20457;-76
2022/04/03 12:17:45;;;;;;;2.30;0.63;;;;;;;;;;5020974;28;20020;-75
2022/04/03 12:20:15;;;;;;;5.93;1.50;;;;;;;;;;5020741;28;20485;-76
2022/04/03 12:22:41;;;;;;;4.47;1.10;;;;;;;;;;5020169;28;20769;-76
2022/04/03 12:25:07;;;;;;;7.03;1.27;;;;;;;;;;5020573;28;20353;-76
2022/04/03 12:27:33;;;;;;;5.30;1.20;;;;;;;;;;5021200;28;20026;-77
2022/04/03 12:30:04;;;;;;;5.25;1.05;;;;;;;;;;5020123;28;20753;-75
2022/04/03 12:32:36;;;;;;;4.15;0.80;;;;;;;;;;5018995;28;20078;-76
2022/04/03 12:35:05;;;;;;;5.55;1.13;;;;;;;;;;5009601;28;20110;-76
2022/04/03 12:37:34;;;;;;;7.00;1.25;;;;;;;;;;5021106;28;20039;-75
2022/04/03 12:40:00;;;;;;;7.30;1.05;;;;;;;;;;5021309;28;20063;-75
2022/04/03 12:42:33;;;;;;;5.38;1.10;;;;;;;;;;5001586;28;20032;-74
2022/04/03 12:45:11;;;;;;;3.88;1.08;;;;;;;;;;5004830;28;20029;-75
2022/04/03 12:47:44;;;;;;;6.13;0.80;;;;;;;;;;5020308;28;20040;-77
2022/04/03 12:50:16;;;;;;;4.47;0.73;;;;;;;;;;5020791;28;20041;-75
2022/04/03 12:52:44;;;;;;;2.35;0.80;;;;;;;;;;5020334;28;20473;-75
2022/04/03 12:55:21;;;;;;;3.35;0.90;;;;;;;;;;5020367;28;20090;-76
2022/04/03 13:00:48;;;;;;;2.10;0.40;;;;;;;;;;5019837;28;20021;-75
2022/04/03 13:03:23;;;;;;;3.13;0.70;;;;;;;;;;5020313;28;20650;-75
2022/04/03 13:05:55;;;;;;;5.22;0.68;;;;;;;;;;5001542;28;20674;-76
2022/04/03 13:08:20;;;;;;;2.40;0.70;;;;;;;;;;5020144;28;20039;-77
2022/04/03 13:10:49;;;;;;;3.83;0.77;;;;;;;;;;5019787;28;20028;-78
2022/04/03 13:13:22;;;;;;;2.22;0.60;;;;;;;;;;5019510;28;20025;-75
2022/04/03 13:15:52;;;;;;;4.40;0.68;;;;;;;;;;5009312;28;20043;-76
2022/04/03 13:18:18;;;;;;;3.60;0.82;;;;;;;;;;5003764;28;20038;-76
2022/04/03 13:20:53;;;;;;;3.13;0.77;;;;;;;;;;5018609;28;20044;-75
2022/04/03 13:23:20;;;;;;;3.65;0.75;;;;;;;;;;5019944;28;20044;-77
2022/04/03 13:25:46;;;;;;;2.67;0.85;;;;;;;;;;5017240;28;20033;-75
2022/04/03 13:28:11;;;;;;;2.92;0.55;;;;;;;;;;5018616;28;20036;-68
2022/04/03 13:30:37;;;;;;;1.17;0.60;;;;;;;;;;5018986;28;20029;-71
2022/04/03 13:33:03;;;;;;;2.28;0.60;;;;;;;;;;4988247;28;20366;-69
2022/04/03 13:35:28;;;;;;;1.80;0.50;;;;;;;;;;5019057;28;20616;-69
2022/04/03 13:37:56;;;;;;;2.10;0.60;;;;;;;;;;5004141;28;20025;-69
2022/04/03 13:40:25;;;;;;;4.32;0.65;;;;;;;;;;4986074;28;20014;-68
2022/04/03 13:42:50;;;;;;;3.60;0.93;;;;;;;;;;5003115;28;20117;-69
2022/04/03 13:45:16;;;;;;;1.42;0.52;;;;;;;;;;5020066;28;21965;-69
2022/04/03 13:47:44;;;;;;;3.17;0.50;;;;;;;;;;5018251;28;20029;-69
2022/04/03 13:50:09;;;;;;;2.63;0.63;;;;;;;;;;5019202;28;20418;-69
2022/04/03 13:52:35;;;;;;;2.00;0.50;;;;;;;;;;5001216;28;20319;-69
2022/04/03 13:55:00;;;;;;;4.03;0.80;;;;;;;;;;5019618;28;20507;-69
2022/04/03 13:57:26;;;;;;;2.83;0.50;;;;;;;;;;5017907;28;20417;-69
2022/04/03 13:59:51;;;;;;;3.08;0.73;;;;;;;;;;5018913;28;20112;-69
2022/04/03 14:02:19;;;;;;;5.18;0.85;;;;;;;;;;5019427;28;20206;-71
2022/04/03 14:04:45;;;;;;;6.18;0.93;;;;;;;;;;5000905;28;20128;-70
2022/04/03 14:07:10;;;;;;;8.40;0.77;;;;;;;;;;5018960;28;20790;-68
2022/04/03 14:09:38;;;;;;;8.18;0.80;;;;;;;;;;5000861;28;20025;-71
2022/04/03 14:12:03;;;;;;;4.70;0.60;;;;;;;;;;5019012;28;20338;-70
2022/04/03 14:14:29;;;;;;;3.60;0.70;;;;;;;;;;5016882;28;20030;-70
2022/04/03 14:16:54;;;;;;;5.45;0.90;;;;;;;;;;5000635;28;20467;-70
2022/04/03 14:19:22;;;;;;;3.65;0.85;;;;;;;;;;4999534;28;20061;-70
2022/04/03 14:21:48;;;;;;;6.97;0.80;;;;;;;;;;5019235;28;20053;-71
2022/04/03 14:24:16;;;;;;;16.05;5.47;;;;;;;;;;5018182;28;20055;-70
2022/04/03 14:26:45;;;;;;;16.75;7.13;;;;;;;;;;5017396;28;20044;-70
2022/04/03 14:29:10;;;;;;;11.07;3.30;;;;;;;;;;5018068;28;20577;-70
2022/04/03 14:31:36;;;;;;;9.63;2.13;;;;;;;;;;5018523;28;20320;-69
2022/04/03 14:34:04;;;;;;;17.73;9.00;;;;;;;;;;5019161;28;20036;-69
2022/04/03 14:36:30;;;;;;;7.60;2.72;;;;;;;;;;5019058;28;21830;-69
2022/04/03 14:38:55;;;;;;;8.45;2.85;;;;;;;;;;5000578;28;20063;-69
2022/04/03 14:41:21;;;;;;;8.48;3.00;;;;;;;;;;5018377;28;20233;-70
2022/04/03 14:43:47;;;;;;;7.07;2.15;;;;;;;;;;5018458;28;20481;-69
2022/04/03 14:46:12;;;;;;;18.50;4.90;;;;;;;;;;5017716;28;20112;-69
2022/04/03 14:48:38;;;;;;;15.27;5.82;;;;;;;;;;5018503;28;20171;-69